createdAt,value
2023-05-20T00:00:00.542Z,101341.41
2023-05-20T00:03:28.226Z,101340.61
2023-05-20T00:06:56.310Z,101342.11
2023-05-20T00:10:24.562Z,101340.41
2023-05-20T00:13:52.236Z,101335.77
2023-05-20T00:17:19.985Z,101338.77
2023-05-20T00:20:47.833Z,101334.35
2023-05-20T00:24:20.651Z,101329.85
2023-05-20T00:27:48.263Z,101327.68
2023-05-20T00:31:16.667Z,101332.16
2023-05-20T00:34:44.324Z,101331.83
2023-05-20T00:38:13.561Z,101334.70
2023-05-20T00:41:41.185Z,101334.56
2023-05-20T00:45:07.634Z,101335.73
2023-05-20T00:48:34.121Z,101338.63
2023-05-20T00:52:03.565Z,101335.94
2023-05-20T00:55:14.225Z,101333.76
2023-05-20T00:58:41.924Z,101330.63
2023-05-20T01:02:09.629Z,101331.10
2023-05-20T01:05:30.404Z,101331.16
2023-05-20T01:08:52.748Z,101332.02
2023-05-20T01:12:20.388Z,101329.41
2023-05-20T01:15:51.445Z,101324.42
2023-05-20T01:19:19.147Z,101318.92
2023-05-20T01:22:47.030Z,101318.14
2023-05-20T01:26:14.666Z,101317.73
2023-05-20T01:29:32.380Z,101320.30
2023-05-20T01:32:53.412Z,101324.27
2023-05-20T01:36:14.100Z,101320.14
2023-05-20T01:39:41.837Z,101318.90
2023-05-20T01:43:09.435Z,101317.52
2023-05-20T01:46:37.149Z,101320.05
2023-05-20T01:50:04.812Z,101318.48
2023-05-20T01:53:25.632Z,101316.54
2023-05-20T01:56:53.265Z,101318.44
2023-05-20T02:00:20.956Z,101318.05
2023-05-20T02:03:48.620Z,101315.29
2023-05-20T02:07:16.345Z,101319.08
2023-05-20T02:10:43.962Z,101320.21
2023-05-20T02:14:11.533Z,101327.20
2023-05-20T02:17:39.184Z,101326.52
2023-05-20T02:21:06.817Z,101325.67
2023-05-20T02:24:05.420Z,101326.95
2023-05-20T02:27:24.294Z,101332.46
2023-05-20T02:30:52.038Z,101336.42
2023-05-20T02:34:19.480Z,101334.98
2023-05-20T02:37:40.273Z,101337.48
2023-05-20T02:41:05.794Z,101338.52
2023-05-20T02:44:31.457Z,101340.04
2023-05-20T02:47:58.152Z,101342.16
2023-05-20T02:51:19.461Z,101346.27
2023-05-20T02:54:40.968Z,101348.78
2023-05-20T02:58:08.633Z,101349.63
2023-05-20T03:01:30.059Z,101349.95
2023-05-20T03:04:57.724Z,101350.80
2023-05-20T03:08:25.308Z,101345.15
2023-05-20T03:11:52.900Z,101347.80
2023-05-20T03:15:20.516Z,101344.61
2023-05-20T03:18:48.188Z,101355.55
2023-05-20T03:22:16.118Z,101360.32
2023-05-20T03:25:36.806Z,101363.87
2023-05-20T03:28:58.022Z,101364.70
2023-05-20T03:32:24.512Z,101364.73
2023-05-20T03:35:52.102Z,101367.16
2023-05-20T03:39:04.935Z,101365.05
2023-05-20T03:42:25.304Z,101366.05
2023-05-20T03:45:52.971Z,101368.83
2023-05-20T03:49:14.324Z,101368.19
2023-05-20T03:52:41.915Z,101367.36
2023-05-20T03:56:09.562Z,101368.77
2023-05-20T03:59:37.173Z,101373.30
2023-05-20T04:03:04.834Z,101367.45
2023-05-20T04:06:23.460Z,101367.54
2023-05-20T04:09:51.141Z,101372.17
2023-05-20T04:13:18.832Z,101375.96
2023-05-20T04:16:46.648Z,101374.98
2023-05-20T04:20:14.341Z,101377.59
2023-05-20T04:23:42.046Z,101379.78
2023-05-20T04:27:09.674Z,101382.23
2023-05-20T04:30:37.632Z,101384.11
2023-05-20T04:34:05.310Z,101390.03
2023-05-20T04:37:32.892Z,101385.60
2023-05-20T04:41:00.488Z,101394.39
2023-05-20T04:44:28.075Z,101394.29
2023-05-20T04:47:55.905Z,101397.45
2023-05-20T04:51:17.443Z,101397.60
2023-05-20T04:54:45.095Z,101395.59
2023-05-20T04:58:12.803Z,101399.40
2023-05-20T05:01:44.930Z,101394.45
2023-05-20T05:05:12.591Z,101400.91
2023-05-20T05:08:36.488Z,101393.72
2023-05-20T05:12:04.158Z,101396.53
2023-05-20T05:15:30.908Z,101397.25
2023-05-20T05:18:58.546Z,101400.69
2023-05-20T05:22:26.150Z,101397.05
2023-05-20T05:25:53.824Z,101392.92
2023-05-20T05:29:21.440Z,101393.58
2023-05-20T05:32:49.614Z,101402.09
2023-05-20T05:36:17.425Z,101407.50
2023-05-20T05:39:48.542Z,101407.40
2023-05-20T05:43:16.196Z,101409.31
2023-05-20T05:46:43.966Z,101410.01
2023-05-20T05:50:10.691Z,101411.22
2023-05-20T05:53:38.386Z,101412.08
2023-05-20T05:56:58.923Z,101408.23
2023-05-20T06:00:26.589Z,101408.18
2023-05-20T06:03:46.980Z,101406.02
2023-05-20T06:07:14.841Z,101402.91
2023-05-20T06:10:42.567Z,101402.94
2023-05-20T06:14:10.212Z,101396.20
2023-05-20T06:17:38.631Z,101392.80
2023-05-20T06:21:06.350Z,101393.30
2023-05-20T06:24:28.717Z,101395.75
2023-05-20T06:27:56.376Z,101389.66
2023-05-20T06:31:25.701Z,101397.11
2023-05-20T06:34:52.505Z,101397.35
2023-05-20T06:38:25.581Z,101394.23
2023-05-20T06:41:51.941Z,101392.70
2023-05-20T06:45:10.805Z,101394.11
2023-05-20T06:48:28.537Z,101390.77
2023-05-20T06:51:56.149Z,101389.46
2023-05-20T06:55:23.894Z,101392.00
2023-05-20T06:58:42.480Z,101390.98
2023-05-20T07:02:01.169Z,101387.81
2023-05-20T07:04:58.240Z,101391.39
2023-05-20T07:08:18.860Z,101395.41
2023-05-20T07:11:47.654Z,101398.08
2023-05-20T07:15:03.609Z,101395.59
2023-05-20T07:18:31.345Z,101394.09
2023-05-20T07:21:42.400Z,101392.32
2023-05-20T07:25:18.075Z,101394.27
2023-05-20T07:28:35.904Z,101394.89
2023-05-20T07:31:46.434Z,101398.61
2023-05-20T07:34:37.096Z,101399.81
2023-05-20T07:37:12.829Z,101395.15
2023-05-20T07:39:40.724Z,101392.47
2023-05-20T07:42:24.609Z,101396.91
2023-05-20T07:45:27.576Z,101394.11
2023-05-20T07:48:53.845Z,101401.79
2023-05-20T07:52:21.523Z,101391.80
2023-05-20T07:55:41.949Z,101392.27
2023-05-20T07:58:50.533Z,101390.61
2023-05-20T08:02:18.370Z,101387.80
2023-05-20T08:05:46.207Z,101383.98
2023-05-20T08:08:54.340Z,101379.23
2023-05-20T08:11:35.635Z,101382.09
2023-05-20T08:14:22.316Z,101382.48
2023-05-20T08:17:14.701Z,101379.64
2023-05-20T08:20:11.165Z,101373.92
2023-05-20T08:22:54.856Z,101380.18
2023-05-20T08:26:04.494Z,101390.58
2023-05-20T08:29:13.186Z,101384.27
2023-05-20T08:32:39.898Z,101378.27
2023-05-20T08:36:03.982Z,101375.67
2023-05-20T08:39:31.798Z,101370.38
2023-05-20T08:42:13.596Z,101369.05
2023-05-20T08:45:34.759Z,101361.34
2023-05-20T08:48:54.721Z,101364.97
2023-05-20T08:52:11.245Z,101369.02
2023-05-20T08:55:14.834Z,101365.75
2023-05-20T08:58:21.178Z,101370.30
2023-05-20T09:01:44.982Z,101364.21
2023-05-20T09:05:08.137Z,101373.52
2023-05-20T09:08:22.169Z,101376.05
2023-05-20T09:11:32.266Z,101372.54
2023-05-20T09:14:54.213Z,101373.46
2023-05-20T09:18:00.324Z,101373.70
2023-05-20T09:21:11.695Z,101365.17
2023-05-20T09:24:39.354Z,101369.13
2023-05-20T09:27:38.246Z,101375.34
2023-05-20T09:31:05.000Z,101378.11
2023-05-20T09:34:33.797Z,101378.52
2023-05-20T09:37:51.641Z,101377.81
2023-05-20T09:45:05.639Z,101372.66
2023-05-20T09:48:34.076Z,101372.63
2023-05-20T09:51:41.250Z,101368.45
2023-05-20T09:54:29.027Z,101362.25
2023-05-20T09:57:27.651Z,101367.11
2023-05-20T10:00:30.850Z,101366.20
2023-05-20T10:03:57.517Z,101361.61
2023-05-20T10:07:40.736Z,101354.56
2023-05-20T10:11:13.085Z,101357.77
2023-05-20T10:14:29.886Z,101353.79
2023-05-20T10:17:50.644Z,101349.76
2023-05-20T10:21:27.576Z,101359.20
2023-05-20T10:24:55.425Z,101351.58
2023-05-20T10:28:23.127Z,101350.54
2023-05-20T10:31:36.976Z,101349.08
2023-05-20T10:35:03.836Z,101340.34
2023-05-20T10:38:11.511Z,101340.16
2023-05-20T10:41:19.680Z,101346.33
2023-05-20T10:44:47.404Z,101343.88
2023-05-20T10:48:10.133Z,101345.83
2023-05-20T10:51:37.638Z,101344.34
2023-05-20T10:55:05.274Z,101340.17
2023-05-20T10:58:32.747Z,101336.70
2023-05-20T11:01:57.772Z,101333.40
2023-05-20T11:05:08.774Z,101337.17
2023-05-20T11:08:42.569Z,101335.18
2023-05-20T11:12:10.237Z,101336.56
2023-05-20T11:15:37.917Z,101337.42
2023-05-20T11:19:05.625Z,101333.85
2023-05-20T11:21:55.479Z,101334.93
2023-05-20T11:25:03.137Z,101324.33
2023-05-20T11:28:32.147Z,101334.77
2023-05-20T11:31:47.110Z,101331.56
2023-05-20T11:35:17.489Z,101332.70
2023-05-20T11:38:45.204Z,101329.52
2023-05-20T11:42:13.522Z,101327.02
2023-05-20T11:45:31.217Z,101324.77
2023-05-20T11:48:49.970Z,101323.46
2023-05-20T11:52:07.762Z,101321.70
2023-05-20T11:55:32.074Z,101314.17
2023-05-20T11:59:06.047Z,101317.90
2023-05-20T12:02:26.911Z,101310.70
2023-05-20T12:06:53.565Z,101312.52
2023-05-20T12:09:20.056Z,101308.79
2023-05-20T12:12:42.520Z,101310.86
2023-05-20T12:16:10.297Z,101311.23
2023-05-20T12:19:29.149Z,101307.08
2023-05-20T12:22:44.137Z,101303.25
2023-05-20T12:26:11.796Z,101300.63
2023-05-20T12:29:30.381Z,101296.35
2023-05-20T12:32:31.901Z,101292.35
2023-05-20T12:35:35.459Z,101288.77
2023-05-20T12:39:07.062Z,101294.40
2023-05-20T12:41:54.671Z,101288.94
2023-05-20T12:45:00.945Z,101289.48
2023-05-20T12:48:21.739Z,101286.88
2023-05-20T12:51:29.683Z,101281.08
2023-05-20T12:54:26.386Z,101278.54
2023-05-20T12:57:45.460Z,101278.47
2023-05-20T13:01:13.160Z,101277.35
2023-05-20T13:04:39.563Z,101269.34
2023-05-20T13:07:47.413Z,101265.45
2023-05-20T13:10:45.047Z,101268.99
2023-05-20T13:13:32.474Z,101263.88
2023-05-20T13:17:01.423Z,101260.95
2023-05-20T13:20:22.173Z,101256.16
2023-05-20T13:23:37.231Z,101252.64
2023-05-20T13:26:55.081Z,101248.90
2023-05-20T13:30:12.802Z,101250.80
2023-05-20T13:33:40.567Z,101251.67
2023-05-20T13:36:48.124Z,101248.30
2023-05-20T13:40:14.504Z,101256.49
2023-05-20T13:43:35.161Z,101253.82
2023-05-20T13:46:45.914Z,101253.29
2023-05-20T13:50:03.528Z,101251.80
2023-05-20T13:53:13.810Z,101251.64
2023-05-20T13:56:10.488Z,101250.50
2023-05-20T13:59:38.206Z,101247.28
2023-05-20T14:02:54.793Z,101243.88
2023-05-20T14:06:13.449Z,101242.44
2023-05-20T14:09:23.669Z,101243.56
2023-05-20T14:12:31.136Z,101245.43
2023-05-20T14:15:38.838Z,101248.45
2023-05-20T14:19:08.924Z,101244.33
2023-05-20T14:22:26.647Z,101244.05
2023-05-20T14:25:58.227Z,101235.64
2023-05-20T14:28:47.144Z,101234.23
2023-05-20T14:32:14.835Z,101238.05
2023-05-20T14:35:22.030Z,101238.10
2023-05-20T14:38:28.737Z,101241.59
2023-05-20T14:41:28.917Z,101235.11
2023-05-20T14:44:21.923Z,101233.77
2023-05-20T14:47:22.347Z,101233.73
2023-05-20T14:50:49.859Z,101226.52
2023-05-20T14:54:17.834Z,101221.86
2023-05-20T14:57:32.757Z,101222.17
2023-05-20T15:00:40.549Z,101216.56
2023-05-20T15:04:01.291Z,101214.81
2023-05-20T15:07:11.778Z,101209.56
2023-05-20T15:10:19.664Z,101210.13
2023-05-20T15:13:46.333Z,101205.92
2023-05-20T15:16:55.226Z,101204.70
2023-05-20T15:20:03.212Z,101200.79
2023-05-20T15:23:20.845Z,101196.00
2023-05-20T15:26:26.470Z,101194.98
2023-05-20T15:29:47.213Z,101193.77
2023-05-20T15:33:07.606Z,101200.33
2023-05-20T15:36:29.031Z,101196.45
2023-05-20T15:39:37.010Z,101193.83
2023-05-20T15:42:44.402Z,101196.06
2023-05-20T15:45:52.090Z,101194.37
2023-05-20T15:48:59.609Z,101195.34
2023-05-20T15:52:27.248Z,101195.95
2023-05-20T15:55:46.969Z,101197.18
2023-05-20T15:59:15.087Z,101199.90
2023-05-20T16:02:44.492Z,101207.12
2023-05-20T16:06:02.117Z,101208.68
2023-05-20T16:09:29.807Z,101209.35
2023-05-20T16:12:55.133Z,101213.33
2023-05-20T16:16:07.116Z,101207.88
2023-05-20T16:19:31.542Z,101205.63
2023-05-20T16:22:49.420Z,101202.39
2023-05-20T16:26:17.094Z,101198.90
2023-05-20T16:29:47.355Z,101202.84
2023-05-20T16:33:14.969Z,101209.35
2023-05-20T16:36:42.991Z,101209.30
2023-05-20T16:40:09.771Z,101211.32
2023-05-20T16:43:27.456Z,101213.10
2023-05-20T16:46:34.132Z,101208.39
2023-05-20T16:50:01.816Z,101214.20
2023-05-20T16:53:29.538Z,101214.48
2023-05-20T16:56:36.752Z,101216.11
2023-05-20T16:59:41.076Z,101214.23
2023-05-20T17:02:46.516Z,101211.84
2023-05-20T17:05:59.872Z,101210.20
2023-05-20T17:09:10.233Z,101208.18
2023-05-20T17:12:26.671Z,101208.98
2023-05-20T17:15:42.519Z,101209.94
2023-05-20T17:19:10.223Z,101211.98
2023-05-20T17:22:38.487Z,101215.03
2023-05-20T17:25:49.347Z,101217.47
2023-05-20T17:29:10.413Z,101214.11
2023-05-20T17:32:28.171Z,101214.36
2023-05-20T17:35:35.937Z,101212.16
2023-05-20T17:39:03.743Z,101219.15
2023-05-20T17:42:31.333Z,101220.39
2023-05-20T17:45:59.019Z,101219.98
2023-05-20T17:49:08.539Z,101215.67
2023-05-20T17:52:35.650Z,101220.14
2023-05-20T17:55:47.988Z,101218.77
2023-05-20T17:59:16.675Z,101221.45
2023-05-20T18:02:44.458Z,101229.62
2023-05-20T18:06:12.149Z,101228.00
2023-05-20T18:09:39.853Z,101229.71
2023-05-20T18:13:07.855Z,101234.44
2023-05-20T18:16:35.746Z,101235.42
2023-05-20T18:20:02.285Z,101235.35
2023-05-20T18:22:58.629Z,101240.45
2023-05-20T18:26:04.836Z,101243.60
2023-05-20T18:29:32.897Z,101253.70
2023-05-20T18:32:59.699Z,101255.59
2023-05-20T18:36:28.127Z,101251.70
2023-05-20T18:39:55.868Z,101258.27
2023-05-20T18:43:23.602Z,101266.02
2023-05-20T18:46:51.837Z,101270.55
2023-05-20T18:50:19.540Z,101270.80
2023-05-20T18:53:47.244Z,101266.62
2023-05-20T18:57:14.411Z,101262.71
2023-05-20T19:00:42.012Z,101268.27
2023-05-20T19:03:59.559Z,101266.39
2023-05-20T19:07:26.559Z,101268.65
2023-05-20T19:10:34.162Z,101270.21
2023-05-20T19:13:35.002Z,101274.39
2023-05-20T19:17:01.606Z,101272.17
2023-05-20T19:20:19.217Z,101278.81
2023-05-20T19:23:37.848Z,101281.52
2023-05-20T19:27:05.574Z,101285.02
2023-05-20T19:30:26.351Z,101286.70
2023-05-20T19:33:30.764Z,101291.04
2023-05-20T19:36:57.195Z,101291.70
2023-05-20T19:39:54.421Z,101287.89
2023-05-20T19:42:58.181Z,101284.98
2023-05-20T19:46:18.432Z,101286.21
2023-05-20T19:49:36.468Z,101287.48
2023-05-20T19:53:04.165Z,101285.35
2023-05-20T19:56:13.687Z,101285.06
2023-05-20T19:59:41.508Z,101283.98
2023-05-20T20:02:52.086Z,101286.98
2023-05-20T20:06:19.779Z,101288.83
2023-05-20T20:09:47.995Z,101289.30
2023-05-20T20:12:38.398Z,101288.41
2023-05-20T20:15:30.972Z,101290.68
2023-05-20T20:18:58.579Z,101291.17
2023-05-20T20:21:59.917Z,101297.05
2023-05-20T20:24:56.234Z,101297.33
2023-05-20T20:28:23.796Z,101301.67
2023-05-20T20:31:31.950Z,101298.37
2023-05-20T20:34:42.263Z,101293.21
2023-05-20T20:37:52.630Z,101289.65
2023-05-20T20:41:18.235Z,101286.45
2023-05-20T20:44:45.846Z,101279.11
2023-05-20T20:47:32.199Z,101282.58
2023-05-20T20:51:06.977Z,101284.58
2023-05-20T20:54:32.959Z,101286.90
2023-05-20T20:58:00.524Z,101285.89
2023-05-20T21:01:28.147Z,101287.48
2023-05-20T21:04:31.589Z,101290.80
2023-05-20T21:07:53.825Z,101292.70
2023-05-20T21:11:21.515Z,101295.39
2023-05-20T21:14:37.943Z,101296.04
2023-05-20T21:17:54.649Z,101296.81
2023-05-20T21:21:10.924Z,101291.63
2023-05-20T21:24:38.510Z,101293.17
2023-05-20T21:28:05.854Z,101292.30
2023-05-20T21:31:13.991Z,101285.13
2023-05-20T21:34:41.809Z,101286.45
2023-05-20T21:37:32.596Z,101285.98
2023-05-20T21:41:00.321Z,101288.60
2023-05-20T21:44:27.037Z,101289.10
2023-05-20T21:47:53.586Z,101294.02
2023-05-20T21:51:20.344Z,101293.70
2023-05-20T21:54:30.796Z,101293.45
2023-05-20T21:57:59.496Z,101286.60
2023-05-20T22:01:27.141Z,101290.33
2023-05-20T22:04:54.784Z,101289.80
2023-05-20T22:08:14.636Z,101290.67
2023-05-20T22:11:42.342Z,101291.40
2023-05-20T22:15:09.957Z,101291.46
2023-05-20T22:18:37.649Z,101290.16
2023-05-20T22:22:03.915Z,101286.55
2023-05-20T22:25:36.750Z,101283.19
2023-05-20T22:28:30.265Z,101292.18
2023-05-20T22:31:02.571Z,101290.45
2023-05-20T22:33:36.326Z,101294.06
2023-05-20T22:36:16.372Z,101287.60
2023-05-20T22:39:07.200Z,101277.24
2023-05-20T22:41:37.297Z,101272.76
2023-05-20T22:44:04.416Z,101276.34
2023-05-20T22:46:32.424Z,101281.06
2023-05-20T22:49:01.984Z,101278.95
2023-05-20T22:51:35.579Z,101277.30
2023-05-20T22:54:26.910Z,101280.64
2023-05-20T22:57:15.195Z,101279.33
2023-05-20T22:59:43.436Z,101280.06
2023-05-20T23:02:25.014Z,101279.08
2023-05-20T23:05:09.000Z,101279.75
2023-05-20T23:08:19.358Z,101281.91
2023-05-20T23:11:39.977Z,101279.30
2023-05-20T23:15:01.070Z,101276.90
2023-05-20T23:18:28.667Z,101271.24
2023-05-20T23:21:34.835Z,101267.23
2023-05-20T23:25:02.492Z,101256.92
2023-05-20T23:28:30.144Z,101255.02
2023-05-20T23:31:57.739Z,101253.98
2023-05-20T23:35:25.351Z,101256.15
2023-05-20T23:38:52.901Z,101253.61
2023-05-20T23:42:19.634Z,101260.59
2023-05-20T23:45:34.699Z,101261.52
2023-05-20T23:49:02.419Z,101256.73
2023-05-20T23:52:23.578Z,101257.20
2023-05-20T23:55:36.058Z,101253.95
2023-05-20T23:58:58.541Z,101253.40
